createdAt,value
2022-08-25T00:00:13.622Z,100143.96
2022-08-25T00:02:54.863Z,100146.20
2022-08-25T00:05:19.398Z,100141.77
2022-08-25T00:07:51.115Z,100143.55
2022-08-25T00:10:23.423Z,100143.06
2022-08-25T00:12:55.973Z,100141.73
2022-08-25T00:15:28.213Z,100133.30
2022-08-25T00:18:01.253Z,100132.41
2022-08-25T00:20:33.055Z,100127.06
2022-08-25T00:23:04.956Z,100131.91
2022-08-25T00:25:38.367Z,100131.47
2022-08-25T00:28:10.704Z,100130.55
2022-08-25T00:30:42.716Z,100134.05
2022-08-25T00:33:14.904Z,100137.55
2022-08-25T00:35:46.856Z,100126.46
2022-08-25T00:38:18.648Z,100130.41
2022-08-25T00:41:06.382Z,100134.38
2022-08-25T00:43:46.261Z,100132.14
2022-08-25T00:46:22.768Z,100137.44
2022-08-25T00:49:03.743Z,100140.95
2022-08-25T00:51:47.678Z,100134.73
2022-08-25T00:54:22.863Z,100133.37
2022-08-25T00:56:55.085Z,100140.42
2022-08-25T00:59:27.339Z,100140.41
2022-08-25T01:01:59.615Z,100143.92
2022-08-25T01:04:31.514Z,100143.86
2022-08-25T01:07:03.632Z,100143.36
2022-08-25T01:09:35.404Z,100141.59
2022-08-25T01:12:07.125Z,100145.09
2022-08-25T01:14:39.141Z,100152.19
2022-08-25T01:17:12.050Z,100145.97
2022-08-25T01:19:44.206Z,100146.80
2022-08-25T01:22:16.892Z,100150.73
2022-08-25T01:24:57.739Z,100149.82
2022-08-25T01:27:29.370Z,100148.47
2022-08-25T01:30:01.229Z,100155.98
2022-08-25T01:32:35.285Z,100149.30
2022-08-25T01:35:07.601Z,100153.27
2022-08-25T01:37:39.340Z,100157.22
2022-08-25T01:40:12.092Z,100150.55
2022-08-25T01:42:55.670Z,100155.83
2022-08-25T01:45:28.854Z,100158.91
2022-08-25T01:48:00.605Z,100155.34
2022-08-25T01:50:32.469Z,100157.05
2022-08-25T01:53:26.830Z,100151.25
2022-08-25T01:56:06.318Z,100152.55
2022-08-25T01:58:42.278Z,100148.92
2022-08-25T02:01:23.046Z,100151.08
2022-08-25T02:03:56.613Z,100152.79
2022-08-25T02:06:34.617Z,100154.94
2022-08-25T02:09:09.473Z,100158.45
2022-08-25T02:11:44.275Z,100157.47
2022-08-25T02:14:17.193Z,100154.73
2022-08-25T02:16:51.079Z,100159.09
2022-08-25T02:19:24.540Z,100161.73
2022-08-25T02:21:56.362Z,100163.93
2022-08-25T02:24:28.272Z,100162.09
2022-08-25T02:27:00.169Z,100163.81
2022-08-25T02:29:32.386Z,100165.08
2022-08-25T02:32:04.583Z,100169.48
2022-08-25T02:34:37.732Z,100168.55
2022-08-25T02:37:09.822Z,100173.42
2022-08-25T02:39:41.675Z,100177.38
2022-08-25T02:42:13.808Z,100170.25
2022-08-25T02:44:45.398Z,100171.55
2022-08-25T02:47:17.501Z,100171.05
2022-08-25T02:49:50.880Z,100179.91
2022-08-25T02:52:22.585Z,100178.95
2022-08-25T02:54:55.650Z,100176.25
2022-08-25T02:57:27.557Z,100182.41
2022-08-25T02:59:59.369Z,100180.15
2022-08-25T03:02:31.864Z,100183.63
2022-08-25T03:05:03.885Z,100178.77
2022-08-25T03:07:38.534Z,100186.27
2022-08-25T03:10:14.632Z,100176.48
2022-08-25T03:12:46.794Z,100175.18
2022-08-25T03:15:18.923Z,100174.33
2022-08-25T03:17:50.754Z,100169.48
2022-08-25T03:20:24.981Z,100173.49
2022-08-25T03:22:56.784Z,100173.07
2022-08-25T03:25:46.977Z,100175.78
2022-08-25T03:28:19.302Z,100166.97
2022-08-25T03:30:55.799Z,100168.78
2022-08-25T03:33:27.819Z,100163.07
2022-08-25T03:36:00.716Z,100166.27
2022-08-25T03:38:32.610Z,100162.36
2022-08-25T03:41:05.898Z,100167.78
2022-08-25T03:43:38.683Z,100167.46
2022-08-25T03:46:10.959Z,100167.17
2022-08-25T03:48:43.137Z,100167.77
2022-08-25T03:51:27.321Z,100162.08
2022-08-25T03:54:01.266Z,100156.34
2022-08-25T03:56:33.486Z,100159.94
2022-08-25T03:59:06.268Z,100154.70
2022-08-25T04:01:40.602Z,100155.67
2022-08-25T04:04:13.631Z,100146.88
2022-08-25T04:06:47.228Z,100151.80
2022-08-25T04:09:19.128Z,100150.53
2022-08-25T04:11:53.031Z,100151.05
2022-08-25T04:14:24.782Z,100154.19
2022-08-25T04:16:56.730Z,100151.15
2022-08-25T04:19:28.560Z,100151.20
2022-08-25T04:22:00.294Z,100153.92
2022-08-25T04:24:32.183Z,100155.30
2022-08-25T04:27:04.162Z,100149.11
2022-08-25T04:29:36.126Z,100144.73
2022-08-25T04:32:08.353Z,100143.04
2022-08-25T04:34:40.236Z,100140.85
2022-08-25T04:37:12.038Z,100140.45
2022-08-25T04:39:43.873Z,100144.94
2022-08-25T04:42:15.519Z,100136.13
2022-08-25T04:44:47.298Z,100133.48
2022-08-25T04:47:18.973Z,100127.25
2022-08-25T04:49:51.015Z,100136.58
2022-08-25T04:52:22.808Z,100130.85
2022-08-25T04:54:54.725Z,100132.67
2022-08-25T04:57:28.258Z,100133.60
2022-08-25T05:00:00.158Z,100129.68
2022-08-25T05:02:32.185Z,100126.64
2022-08-25T05:05:04.385Z,100118.31
2022-08-25T05:07:37.958Z,100112.15
2022-08-25T05:10:09.708Z,100114.87
2022-08-25T05:12:41.631Z,100110.48
2022-08-25T05:15:31.717Z,100110.98
2022-08-25T05:18:03.956Z,100109.27
2022-08-25T05:20:38.097Z,100109.73
2022-08-25T05:23:09.930Z,100113.30
2022-08-25T05:25:43.109Z,100117.32
2022-08-25T05:28:15.019Z,100124.00
2022-08-25T05:30:48.543Z,100128.48
2022-08-25T05:33:20.812Z,100125.37
2022-08-25T05:35:52.738Z,100127.19
2022-08-25T05:38:24.517Z,100129.87
2022-08-25T05:41:01.766Z,100124.08
2022-08-25T05:43:34.117Z,100121.41
2022-08-25T05:46:06.337Z,100117.38
2022-08-25T05:48:38.291Z,100110.69
2022-08-25T05:51:11.501Z,100109.79
2022-08-25T05:53:46.693Z,100107.11
2022-08-25T05:56:18.899Z,100112.46
2022-08-25T05:58:50.930Z,100107.14
2022-08-25T06:01:44.980Z,100109.80
2022-08-25T06:04:18.307Z,100105.38
2022-08-25T06:06:51.981Z,100108.94
2022-08-25T06:09:24.492Z,100105.81
2022-08-25T06:11:56.391Z,100102.25
2022-08-25T06:14:28.242Z,100099.59
2022-08-25T06:17:01.931Z,100102.67
2022-08-25T06:19:33.963Z,100099.95
2022-08-25T06:22:07.674Z,100098.13
2022-08-25T06:24:40.212Z,100092.72
2022-08-25T06:27:11.939Z,100095.75
2022-08-25T06:29:44.371Z,100087.69
2022-08-25T06:32:16.189Z,100095.16
2022-08-25T06:34:48.593Z,100091.53
2022-08-25T06:37:25.073Z,100086.98
2022-08-25T06:39:54.199Z,100089.10
2022-08-25T06:42:26.026Z,100085.89
2022-08-25T06:44:59.453Z,100083.17
2022-08-25T06:47:31.374Z,100083.97
2022-08-25T06:50:04.899Z,100081.66
2022-08-25T06:52:36.864Z,100077.13
2022-08-25T06:55:08.951Z,100073.91
2022-08-25T06:57:40.938Z,100061.77
2022-08-25T07:00:13.598Z,100064.30
2022-08-25T07:02:47.195Z,100060.16
2022-08-25T07:05:27.355Z,100057.74
2022-08-25T07:07:53.343Z,100046.42
2022-08-25T07:10:26.102Z,100048.95
2022-08-25T07:12:57.937Z,100043.01
2022-08-25T07:15:30.633Z,100049.59
2022-08-25T07:18:02.477Z,100036.09
2022-08-25T07:20:37.665Z,100048.88
2022-08-25T07:23:09.616Z,100042.44
2022-08-25T07:25:42.308Z,100035.14
2022-08-25T07:28:14.995Z,100039.00
2022-08-25T07:30:51.894Z,100027.20
2022-08-25T07:33:20.647Z,100025.25
2022-08-25T07:35:52.745Z,100027.41
2022-08-25T07:38:24.921Z,100024.52
2022-08-25T07:41:04.865Z,100028.03
2022-08-25T07:43:37.215Z,100014.05
2022-08-25T07:46:09.884Z,100010.84
2022-08-25T07:48:42.192Z,100031.33
2022-08-25T07:51:17.697Z,100007.94
2022-08-25T07:53:49.618Z,100004.66
2022-08-25T07:56:21.590Z,100007.70
2022-08-25T07:58:53.589Z,100000.86
2022-08-25T08:01:26.465Z,99995.80
2022-08-25T08:04:01.568Z,99995.77
2022-08-25T08:06:32.342Z,99984.55
2022-08-25T08:09:04.514Z,99984.48
2022-08-25T08:11:42.544Z,99983.41
2022-08-25T08:14:13.673Z,99985.09
2022-08-25T08:16:47.568Z,99967.89
2022-08-25T08:19:21.866Z,99959.18
2022-08-25T08:21:53.009Z,99949.19
2022-08-25T08:24:44.223Z,99953.98
2022-08-25T08:26:59.979Z,99963.25
2022-08-25T10:13:48.049Z,99876.82
2022-08-25T10:16:36.081Z,99877.88
2022-08-25T10:19:17.387Z,99873.64
2022-08-25T10:22:11.133Z,99865.41
2022-08-25T10:24:44.447Z,99875.12
2022-08-25T10:27:39.496Z,99863.72
2022-08-25T10:30:38.181Z,99864.45
2022-08-25T10:33:52.004Z,99857.56
2022-08-25T10:36:38.674Z,99869.06
2022-08-25T10:39:34.172Z,99848.64
2022-08-25T10:42:32.261Z,99847.56
2022-08-25T10:45:40.259Z,99847.39
2022-08-25T10:49:04.521Z,99850.86
2022-08-25T10:52:00.736Z,99851.23
2022-08-25T10:55:21.989Z,99845.84
2022-08-25T10:58:30.796Z,99842.19
2022-08-25T11:01:45.445Z,99834.70
2022-08-25T11:04:59.768Z,99832.70
2022-08-25T11:07:49.756Z,99828.01
2022-08-25T11:10:29.769Z,99832.59
2022-08-25T11:13:16.467Z,99821.00
2022-08-25T11:16:16.706Z,99822.06
2022-08-25T11:18:37.689Z,99823.41
2022-08-25T11:21:17.710Z,99821.00
2022-08-25T11:24:16.471Z,99815.77
2022-08-25T11:26:55.153Z,99822.62
2022-08-25T11:29:32.093Z,99822.94
2022-08-25T11:32:06.807Z,99831.96
2022-08-25T11:34:43.819Z,99826.34
2022-08-25T11:37:23.369Z,99822.56
2022-08-25T11:40:22.771Z,99821.32
2022-08-25T11:43:35.558Z,99819.49
2022-08-25T11:46:34.719Z,99817.98
2022-08-25T11:49:32.331Z,99816.13
2022-08-25T11:52:06.624Z,99816.84
2022-08-25T11:54:42.977Z,99817.55
2022-08-25T11:57:22.986Z,99821.96
2022-08-25T12:00:15.819Z,99817.37
2022-08-25T12:02:51.490Z,99813.75
2022-08-25T12:05:29.024Z,99807.17
2022-08-25T12:08:25.505Z,99814.55
2022-08-25T12:11:11.080Z,99811.17
2022-08-25T12:13:49.710Z,99814.09
2022-08-25T12:16:43.613Z,99807.59
2022-08-25T12:19:39.916Z,99806.81
2022-08-25T12:22:23.572Z,99801.06
2022-08-25T12:25:16.798Z,99809.20
2022-08-25T12:28:18.454Z,99810.77
2022-08-25T12:30:58.659Z,99808.42
2022-08-25T12:33:48.104Z,99806.17
2022-08-25T12:36:33.304Z,99802.11
2022-08-25T12:39:24.804Z,99797.73
2022-08-25T12:42:09.289Z,99796.39
2022-08-25T12:44:49.509Z,99789.15
2022-08-25T12:47:31.841Z,99794.61
2022-08-25T12:50:38.128Z,99786.59
2022-08-25T12:53:45.868Z,99794.25
2022-08-25T12:56:40.870Z,99792.84
2022-08-25T12:59:20.270Z,99778.95
2022-08-25T13:02:22.871Z,99770.39
2022-08-25T13:05:28.620Z,99778.47
2022-08-25T13:08:48.134Z,99769.81
2022-08-25T13:11:28.532Z,99776.12
2022-08-25T13:17:06.669Z,99772.67
2022-08-25T13:19:40.389Z,99767.56
2022-08-25T13:22:17.910Z,99770.93
2022-08-25T13:24:51.833Z,99765.71
2022-08-25T13:27:28.418Z,99768.14
2022-08-25T13:30:04.027Z,99777.23
2022-08-25T13:32:39.679Z,99769.19
2022-08-25T13:35:25.559Z,99765.62
2022-08-25T13:38:18.737Z,99765.62
2022-08-25T13:40:51.947Z,99772.00
2022-08-25T13:43:27.629Z,99763.09
2022-08-25T13:46:00.219Z,99764.50
2022-08-25T13:48:38.588Z,99757.39
2022-08-25T13:51:24.733Z,99756.09
2022-08-25T13:54:06.924Z,99764.20
2022-08-25T13:56:43.352Z,99753.40
2022-08-25T13:59:30.022Z,99753.40
2022-08-25T14:02:03.299Z,99760.57
2022-08-25T14:04:51.234Z,99767.74
2022-08-25T14:07:34.388Z,99755.59
2022-08-25T14:10:08.254Z,99760.03
2022-08-25T14:12:49.842Z,99758.69
2022-08-25T14:15:27.613Z,99751.55
2022-08-25T14:18:08.654Z,99756.52
2022-08-25T14:20:50.690Z,99754.86
2022-08-25T14:23:28.424Z,99756.33
2022-08-25T14:26:01.445Z,99753.81
2022-08-25T14:28:35.426Z,99756.23
2022-08-25T14:31:11.108Z,99747.38
2022-08-25T14:34:07.126Z,99750.11
2022-08-25T14:36:40.040Z,99754.66
2022-08-25T14:39:14.659Z,99743.92
2022-08-25T14:41:52.624Z,99752.55
2022-08-25T14:44:23.196Z,99744.15
2022-08-25T14:46:58.225Z,99747.86
2022-08-25T14:49:36.259Z,99737.23
2022-08-25T14:52:23.762Z,99733.42
2022-08-25T14:55:00.344Z,99735.36
2022-08-25T14:57:33.582Z,99728.30
2022-08-25T15:00:08.972Z,99725.19
2022-08-25T15:02:44.745Z,99728.36
2022-08-25T15:05:28.260Z,99726.64
2022-08-25T15:08:19.061Z,99720.60
2022-08-25T15:10:51.898Z,99723.94
2022-08-25T15:13:27.044Z,99723.69
2022-08-25T15:16:01.572Z,99730.16
2022-08-25T15:18:36.024Z,99731.73
2022-08-25T15:21:09.346Z,99729.67
2022-08-25T15:23:44.650Z,99730.22
2022-08-25T15:26:18.164Z,99741.59
2022-08-25T15:28:52.284Z,99739.92
2022-08-25T15:31:25.300Z,99745.50
2022-08-25T15:33:59.891Z,99747.93
2022-08-25T15:36:32.812Z,99745.44
2022-08-25T15:39:07.627Z,99740.73
2022-08-25T15:41:42.824Z,99740.06
2022-08-25T15:44:15.749Z,99734.42
2022-08-25T15:46:50.311Z,99733.32
2022-08-25T15:49:24.351Z,99736.69
2022-08-25T15:51:57.807Z,99735.63
2022-08-25T15:54:32.255Z,99732.88
2022-08-25T15:57:09.082Z,99741.98
2022-08-25T15:59:41.507Z,99743.56
2022-08-25T16:02:15.216Z,99738.88
2022-08-25T16:04:51.915Z,99729.66
2022-08-25T16:07:25.145Z,99738.91
2022-08-25T16:09:59.333Z,99740.92
2022-08-25T16:12:32.614Z,99741.15
2022-08-25T16:15:06.271Z,99741.89
2022-08-25T16:17:44.315Z,99740.84
2022-08-25T16:20:17.905Z,99751.94
2022-08-25T16:22:50.847Z,99753.49
2022-08-25T16:25:24.864Z,99744.89
2022-08-25T16:27:58.325Z,99755.41
2022-08-25T16:30:31.542Z,99756.59
2022-08-25T16:33:05.255Z,99748.72
2022-08-25T16:35:40.632Z,99747.14
2022-08-25T16:38:13.353Z,99745.52
2022-08-25T16:40:47.269Z,99747.88
2022-08-25T16:43:20.205Z,99746.73
2022-08-25T16:46:02.671Z,99742.45
2022-08-25T16:48:38.019Z,99739.03
2022-08-25T16:51:19.300Z,99744.63
2022-08-25T16:54:10.578Z,99744.30
2022-08-25T16:56:43.741Z,99746.72
2022-08-25T16:59:17.441Z,99744.30
2022-08-25T17:01:50.570Z,99742.16
2022-08-25T17:04:29.558Z,99742.83
2022-08-25T17:06:59.498Z,99749.23
2022-08-25T17:09:32.933Z,99743.16
2022-08-25T17:12:06.029Z,99740.63
2022-08-25T17:14:39.557Z,99743.41
2022-08-25T17:17:13.152Z,99735.45
2022-08-25T17:19:50.711Z,99739.98
2022-08-25T17:22:23.202Z,99742.26
2022-08-25T17:25:00.918Z,99740.95
2022-08-25T17:27:32.105Z,99742.75
2022-08-25T17:30:06.943Z,99743.25
2022-08-25T17:32:40.001Z,99741.06
2022-08-25T17:35:14.084Z,99742.91
2022-08-25T17:37:50.419Z,99741.59
2022-08-25T17:40:22.735Z,99739.38
2022-08-25T17:42:57.275Z,99741.71
2022-08-25T17:45:31.481Z,99748.00
2022-08-25T17:48:05.003Z,99741.83
2022-08-25T17:50:40.023Z,99740.11
2022-08-25T17:53:14.513Z,99746.46
2022-08-25T17:55:49.316Z,99738.03
2022-08-25T17:58:22.850Z,99738.15
2022-08-25T18:00:55.770Z,99733.31
2022-08-25T18:03:29.663Z,99740.97
2022-08-25T18:06:03.551Z,99739.28
2022-08-25T18:08:36.355Z,99734.00
2022-08-25T18:11:10.526Z,99741.22
2022-08-25T18:13:45.366Z,99741.78
2022-08-25T18:16:18.459Z,99743.23
2022-08-25T18:18:52.944Z,99733.05
2022-08-25T18:21:30.346Z,99734.47
2022-08-25T18:24:03.116Z,99741.67
2022-08-25T18:26:37.362Z,99736.37
2022-08-25T18:29:11.989Z,99741.30
2022-08-25T18:31:48.513Z,99737.34
2022-08-25T18:34:22.466Z,99741.36
2022-08-25T18:36:55.537Z,99746.30
2022-08-25T18:39:46.741Z,99739.63
2022-08-25T18:42:20.291Z,99746.33
2022-08-25T18:44:54.378Z,99740.55
2022-08-25T18:47:27.503Z,99745.47
2022-08-25T18:50:04.400Z,99741.51
2022-08-25T18:52:36.179Z,99738.41
2022-08-25T18:55:09.973Z,99749.59
2022-08-25T18:57:44.704Z,99749.17
2022-08-25T19:00:23.089Z,99744.71
2022-08-25T19:02:58.538Z,99743.86
2022-08-25T19:05:39.006Z,99751.05
2022-08-25T19:08:14.339Z,99748.80
2022-08-25T19:10:53.080Z,99756.83
2022-08-25T19:13:26.306Z,99752.42
2022-08-25T19:16:00.613Z,99754.22
2022-08-25T19:18:33.809Z,99755.17
2022-08-25T19:21:07.663Z,99753.41
2022-08-25T19:23:41.177Z,99752.14
2022-08-25T19:26:17.412Z,99756.64
2022-08-25T19:28:50.021Z,99753.52
2022-08-25T19:31:25.960Z,99750.03
2022-08-25T19:33:59.478Z,99742.92
2022-08-25T19:36:33.259Z,99742.55
2022-08-25T19:39:09.717Z,99736.75
2022-08-25T19:41:44.202Z,99743.48
2022-08-25T19:44:17.978Z,99739.08
2022-08-25T19:46:51.672Z,99740.87
2022-08-25T19:49:31.726Z,99740.91
2022-08-25T19:52:10.608Z,99739.63
2022-08-25T19:54:46.866Z,99742.34
2022-08-25T19:57:27.833Z,99736.16
2022-08-25T19:59:55.431Z,99742.45
2022-08-25T20:02:30.143Z,99743.39
2022-08-25T20:05:03.490Z,99736.74
2022-08-25T20:07:36.626Z,99741.66
2022-08-25T20:10:14.341Z,99740.34
2022-08-25T20:12:48.039Z,99740.83
2022-08-25T20:15:21.569Z,99738.63
2022-08-25T20:17:56.972Z,99732.84
2022-08-25T20:20:32.646Z,99733.30
2022-08-25T20:23:22.856Z,99736.44
2022-08-25T20:25:55.909Z,99730.17
2022-08-25T20:28:29.667Z,99729.69
2022-08-25T20:31:02.477Z,99726.51
2022-08-25T20:33:36.355Z,99711.80
2022-08-25T20:36:09.628Z,99715.70
2022-08-25T20:38:45.019Z,99713.33
2022-08-25T20:41:18.121Z,99715.34
2022-08-25T20:43:51.659Z,99713.41
2022-08-25T20:46:25.159Z,99716.72
2022-08-25T20:48:58.876Z,99710.31
2022-08-25T20:51:33.341Z,99705.67
2022-08-25T20:54:06.328Z,99702.00
2022-08-25T20:56:39.585Z,99700.04
2022-08-25T20:59:13.316Z,99692.36
2022-08-25T21:01:49.406Z,99695.43
2022-08-25T21:04:27.132Z,99696.27
2022-08-25T21:07:03.505Z,99686.44
2022-08-25T21:09:37.870Z,99697.50
2022-08-25T21:12:11.890Z,99699.69
2022-08-25T21:14:45.117Z,99701.91
2022-08-25T21:17:19.516Z,99712.59
2022-08-25T21:19:52.625Z,99709.45
2022-08-25T21:22:26.125Z,99713.00
2022-08-25T21:24:59.062Z,99720.14
2022-08-25T21:27:32.201Z,99714.31
2022-08-25T21:30:06.571Z,99717.02
2022-08-25T21:32:41.198Z,99711.25
2022-08-25T21:35:15.710Z,99714.39
2022-08-25T21:37:49.125Z,99721.09
2022-08-25T21:40:24.676Z,99731.78
2022-08-25T21:42:57.539Z,99734.90
2022-08-25T21:45:35.890Z,99737.58
2022-08-25T21:48:05.960Z,99744.30
2022-08-25T21:50:39.984Z,99746.98
2022-08-25T21:53:12.911Z,99749.22
2022-08-25T21:55:45.821Z,99755.48
2022-08-25T21:58:18.611Z,99745.20
2022-08-25T22:00:51.759Z,99743.02
2022-08-25T22:03:26.490Z,99736.78
2022-08-25T22:06:01.518Z,99738.16
2022-08-25T22:08:37.567Z,99748.43
2022-08-25T22:11:11.958Z,99742.69
2022-08-25T22:13:46.474Z,99739.59
2022-08-25T22:16:21.519Z,99736.08
2022-08-25T22:18:54.768Z,99731.64
2022-08-25T22:21:29.406Z,99732.54
2022-08-25T22:24:02.631Z,99740.17
2022-08-25T22:26:35.763Z,99729.48
2022-08-25T22:29:08.478Z,99726.34
2022-08-25T22:31:42.407Z,99724.12
2022-08-25T22:34:15.337Z,99724.14
2022-08-25T22:36:50.143Z,99731.30
2022-08-25T22:39:23.889Z,99734.91
2022-08-25T22:41:57.193Z,99745.67
2022-08-25T22:44:30.336Z,99744.38
2022-08-25T22:47:03.223Z,99752.02
2022-08-25T22:49:38.015Z,99756.55
2022-08-25T22:52:12.985Z,99753.48
2022-08-25T22:54:46.078Z,99755.80
2022-08-25T22:57:19.700Z,99755.38
2022-08-25T22:59:52.531Z,99756.33
2022-08-25T23:02:26.149Z,99747.00
2022-08-25T23:05:01.046Z,99750.59
2022-08-25T23:07:34.183Z,99751.06
2022-08-25T23:10:12.547Z,99749.75
2022-08-25T23:12:47.308Z,99747.55
2022-08-25T23:15:20.173Z,99748.93
2022-08-25T23:17:53.315Z,99742.31
2022-08-25T23:20:45.004Z,99739.69
2022-08-25T23:23:18.532Z,99739.31
2022-08-25T23:25:51.462Z,99734.47
2022-08-25T23:28:24.577Z,99730.03
2022-08-25T23:30:59.261Z,99732.31
2022-08-25T23:33:32.497Z,99726.09
2022-08-25T23:36:10.887Z,99725.72
2022-08-25T23:38:46.058Z,99715.11
2022-08-25T23:41:23.912Z,99714.27
2022-08-25T23:43:57.184Z,99718.80
2022-08-25T23:46:30.879Z,99719.77
2022-08-25T23:49:06.206Z,99719.80
2022-08-25T23:51:41.391Z,99729.22
2022-08-25T23:54:14.844Z,99735.53
2022-08-25T23:56:52.330Z,99744.09
2022-08-25T23:59:25.564Z,99746.05
